sensor_id;sensor_type;location;lat;lon;timestamp;P1;durP1;ratioP1;P2;durP2;ratioP2
62435;SDS011;48480;50.252;18.848;2022-08-25T00:01:19;9.30;;;4.90;;
62435;SDS011;48480;50.252;18.848;2022-08-25T00:03:49;13.90;;;5.20;;
62435;SDS011;48480;50.252;18.848;2022-08-25T00:06:17;14.10;;;5.30;;
62435;SDS011;48480;50.252;18.848;2022-08-25T00:08:44;13.50;;;5.40;;
62435;SDS011;48480;50.252;18.848;2022-08-25T00:11:12;10.60;;;4.50;;
62435;SDS011;48480;50.252;18.848;2022-08-25T00:13:43;14.70;;;5.30;;
62435;SDS011;48480;50.252;18.848;2022-08-25T00:16:12;13.10;;;5.40;;
62435;SDS011;48480;50.252;18.848;2022-08-25T00:18:40;12.40;;;5.20;;
62435;SDS011;48480;50.252;18.848;2022-08-25T00:21:11;17.40;;;6.20;;
62435;SDS011;48480;50.252;18.848;2022-08-25T00:23:38;13.70;;;6.10;;
62435;SDS011;48480;50.252;18.848;2022-08-25T00:26:05;12.30;;;4.90;;
62435;SDS011;48480;50.252;18.848;2022-08-25T00:28:33;11.70;;;5.70;;
62435;SDS011;48480;50.252;18.848;2022-08-25T00:31:02;10.50;;;5.20;;
62435;SDS011;48480;50.252;18.848;2022-08-25T00:33:29;11.40;;;5.20;;
62435;SDS011;48480;50.252;18.848;2022-08-25T00:35:56;13.70;;;5.20;;
62435;SDS011;48480;50.252;18.848;2022-08-25T00:38:23;13.60;;;5.00;;
62435;SDS011;48480;50.252;18.848;2022-08-25T00:40:51;12.80;;;5.50;;
62435;SDS011;48480;50.252;18.848;2022-08-25T00:46:09;13.70;;;4.40;;
62435;SDS011;48480;50.252;18.848;2022-08-25T00:48:36;13.50;;;5.70;;
62435;SDS011;48480;50.252;18.848;2022-08-25T00:51:05;12.70;;;5.30;;
62435;SDS011;48480;50.252;18.848;2022-08-25T00:53:34;10.80;;;5.20;;
62435;SDS011;48480;50.252;18.848;2022-08-25T00:56:01;13.50;;;5.30;;
62435;SDS011;48480;50.252;18.848;2022-08-25T00:58:28;11.20;;;5.00;;
62435;SDS011;48480;50.252;18.848;2022-08-25T01:00:56;12.10;;;5.60;;
62435;SDS011;48480;50.252;18.848;2022-08-25T01:03:26;13.90;;;5.20;;
62435;SDS011;48480;50.252;18.848;2022-08-25T01:05:53;11.30;;;4.80;;
62435;SDS011;48480;50.252;18.848;2022-08-25T01:08:23;11.40;;;4.90;;
62435;SDS011;48480;50.252;18.848;2022-08-25T01:10:53;9.90;;;4.60;;
62435;SDS011;48480;50.252;18.848;2022-08-25T01:13:23;14.90;;;5.30;;
62435;SDS011;48480;50.252;18.848;2022-08-25T01:15:54;14.00;;;5.70;;
62435;SDS011;48480;50.252;18.848;2022-08-25T01:18:22;11.30;;;5.70;;
62435;SDS011;48480;50.252;18.848;2022-08-25T01:20:57;8.80;;;4.80;;
62435;SDS011;48480;50.252;18.848;2022-08-25T01:23:25;9.50;;;4.90;;
62435;SDS011;48480;50.252;18.848;2022-08-25T01:26:12;13.20;;;5.20;;
62435;SDS011;48480;50.252;18.848;2022-08-25T01:28:43;11.10;;;4.70;;
62435;SDS011;48480;50.252;18.848;2022-08-25T01:31:29;14.10;;;5.10;;
62435;SDS011;48480;50.252;18.848;2022-08-25T01:33:57;13.80;;;4.90;;
62435;SDS011;48480;50.252;18.848;2022-08-25T01:36:24;11.20;;;5.20;;
62435;SDS011;48480;50.252;18.848;2022-08-25T01:38:52;14.90;;;5.50;;
62435;SDS011;48480;50.252;18.848;2022-08-25T01:41:25;12.70;;;5.40;;
62435;SDS011;48480;50.252;18.848;2022-08-25T01:43:55;10.20;;;5.00;;
62435;SDS011;48480;50.252;18.848;2022-08-25T01:46:21;11.90;;;5.00;;
62435;SDS011;48480;50.252;18.848;2022-08-25T01:48:48;12.50;;;4.90;;
62435;SDS011;48480;50.252;18.848;2022-08-25T01:51:14;13.10;;;5.10;;
62435;SDS011;48480;50.252;18.848;2022-08-25T01:53:44;13.50;;;6.20;;
62435;SDS011;48480;50.252;18.848;2022-08-25T01:56:11;13.20;;;5.20;;
62435;SDS011;48480;50.252;18.848;2022-08-25T01:58:41;13.00;;;5.90;;
62435;SDS011;48480;50.252;18.848;2022-08-25T02:01:12;8.80;;;5.80;;
62435;SDS011;48480;50.252;18.848;2022-08-25T02:03:43;13.00;;;5.40;;
62435;SDS011;48480;50.252;18.848;2022-08-25T02:06:12;9.90;;;5.60;;
62435;SDS011;48480;50.252;18.848;2022-08-25T02:08:40;12.70;;;5.60;;
62435;SDS011;48480;50.252;18.848;2022-08-25T02:11:11;15.40;;;6.60;;
62435;SDS011;48480;50.252;18.848;2022-08-25T02:13:39;15.80;;;6.30;;
62435;SDS011;48480;50.252;18.848;2022-08-25T02:16:07;15.40;;;7.30;;
62435;SDS011;48480;50.252;18.848;2022-08-25T02:18:35;16.60;;;8.50;;
62435;SDS011;48480;50.252;18.848;2022-08-25T02:21:02;20.10;;;8.80;;
62435;SDS011;48480;50.252;18.848;2022-08-25T02:23:28;22.40;;;9.50;;
62435;SDS011;48480;50.252;18.848;2022-08-25T02:25:55;17.80;;;8.50;;
62435;SDS011;48480;50.252;18.848;2022-08-25T02:28:22;16.30;;;7.40;;
62435;SDS011;48480;50.252;18.848;2022-08-25T02:30:49;15.90;;;8.30;;
62435;SDS011;48480;50.252;18.848;2022-08-25T02:33:18;15.80;;;8.00;;
62435;SDS011;48480;50.252;18.848;2022-08-25T02:35:44;17.80;;;7.70;;
62435;SDS011;48480;50.252;18.848;2022-08-25T02:38:11;19.20;;;7.90;;
62435;SDS011;48480;50.252;18.848;2022-08-25T02:40:37;14.20;;;7.10;;
62435;SDS011;48480;50.252;18.848;2022-08-25T02:43:04;12.80;;;6.00;;
62435;SDS011;48480;50.252;18.848;2022-08-25T02:45:31;14.10;;;6.80;;
62435;SDS011;48480;50.252;18.848;2022-08-25T02:47:57;16.90;;;7.10;;
62435;SDS011;48480;50.252;18.848;2022-08-25T02:50:24;15.70;;;7.60;;
62435;SDS011;48480;50.252;18.848;2022-08-25T02:52:51;14.00;;;6.70;;
62435;SDS011;48480;50.252;18.848;2022-08-25T02:55:18;17.80;;;6.70;;
62435;SDS011;48480;50.252;18.848;2022-08-25T02:57:45;13.30;;;5.60;;
62435;SDS011;48480;50.252;18.848;2022-08-25T03:00:13;15.30;;;6.30;;
62435;SDS011;48480;50.252;18.848;2022-08-25T03:02:41;15.40;;;7.00;;
62435;SDS011;48480;50.252;18.848;2022-08-25T03:05:10;12.10;;;6.10;;
62435;SDS011;48480;50.252;18.848;2022-08-25T03:07:37;16.80;;;7.30;;
62435;SDS011;48480;50.252;18.848;2022-08-25T03:10:08;12.50;;;6.80;;
62435;SDS011;48480;50.252;18.848;2022-08-25T03:12:37;18.00;;;6.90;;
62435;SDS011;48480;50.252;18.848;2022-08-25T03:15:04;13.80;;;6.60;;
62435;SDS011;48480;50.252;18.848;2022-08-25T03:17:30;12.20;;;5.80;;
62435;SDS011;48480;50.252;18.848;2022-08-25T03:19:57;13.20;;;6.00;;
62435;SDS011;48480;50.252;18.848;2022-08-25T03:22:23;14.20;;;6.20;;
62435;SDS011;48480;50.252;18.848;2022-08-25T03:24:50;14.30;;;6.60;;
62435;SDS011;48480;50.252;18.848;2022-08-25T03:27:16;12.50;;;8.10;;
62435;SDS011;48480;50.252;18.848;2022-08-25T03:29:42;19.10;;;8.10;;
62435;SDS011;48480;50.252;18.848;2022-08-25T03:32:09;14.70;;;7.90;;
62435;SDS011;48480;50.252;18.848;2022-08-25T03:34:36;17.60;;;8.20;;
62435;SDS011;48480;50.252;18.848;2022-08-25T03:37:02;12.90;;;6.90;;
62435;SDS011;48480;50.252;18.848;2022-08-25T03:39:30;14.60;;;7.60;;
62435;SDS011;48480;50.252;18.848;2022-08-25T03:41:57;16.30;;;7.70;;
62435;SDS011;48480;50.252;18.848;2022-08-25T03:44:23;15.20;;;8.30;;
62435;SDS011;48480;50.252;18.848;2022-08-25T03:46:50;17.20;;;8.30;;
62435;SDS011;48480;50.252;18.848;2022-08-25T03:49:19;12.20;;;7.30;;
62435;SDS011;48480;50.252;18.848;2022-08-25T03:51:48;14.80;;;7.90;;
62435;SDS011;48480;50.252;18.848;2022-08-25T03:54:18;15.30;;;6.40;;
62435;SDS011;48480;50.252;18.848;2022-08-25T03:56:46;15.80;;;6.90;;
62435;SDS011;48480;50.252;18.848;2022-08-25T03:59:13;11.90;;;6.30;;
62435;SDS011;48480;50.252;18.848;2022-08-25T04:01:40;17.30;;;7.70;;
62435;SDS011;48480;50.252;18.848;2022-08-25T04:04:09;12.90;;;6.80;;
62435;SDS011;48480;50.252;18.848;2022-08-25T04:06:37;12.70;;;6.80;;
62435;SDS011;48480;50.252;18.848;2022-08-25T04:09:04;16.20;;;7.80;;
62435;SDS011;48480;50.252;18.848;2022-08-25T04:11:30;10.80;;;7.10;;
62435;SDS011;48480;50.252;18.848;2022-08-25T04:13:57;14.30;;;6.40;;
62435;SDS011;48480;50.252;18.848;2022-08-25T04:16:30;15.80;;;6.50;;
62435;SDS011;48480;50.252;18.848;2022-08-25T04:18:58;14.80;;;6.60;;
62435;SDS011;48480;50.252;18.848;2022-08-25T04:21:27;19.30;;;6.40;;
62435;SDS011;48480;50.252;18.848;2022-08-25T04:23:55;9.30;;;5.80;;
62435;SDS011;48480;50.252;18.848;2022-08-25T04:26:24;14.50;;;7.00;;
62435;SDS011;48480;50.252;18.848;2022-08-25T04:28:55;13.60;;;6.60;;
62435;SDS011;48480;50.252;18.848;2022-08-25T04:31:23;12.80;;;6.80;;
62435;SDS011;48480;50.252;18.848;2022-08-25T04:33:49;10.30;;;6.10;;
62435;SDS011;48480;50.252;18.848;2022-08-25T04:36:17;12.70;;;5.90;;
62435;SDS011;48480;50.252;18.848;2022-08-25T04:38:44;9.80;;;5.90;;
62435;SDS011;48480;50.252;18.848;2022-08-25T04:41:13;12.30;;;6.00;;
62435;SDS011;48480;50.252;18.848;2022-08-25T04:43:41;14.30;;;6.40;;
62435;SDS011;48480;50.252;18.848;2022-08-25T04:46:10;12.60;;;6.70;;
62435;SDS011;48480;50.252;18.848;2022-08-25T04:48:39;11.90;;;6.70;;
62435;SDS011;48480;50.252;18.848;2022-08-25T04:51:07;10.80;;;6.30;;
62435;SDS011;48480;50.252;18.848;2022-08-25T04:53:35;14.40;;;6.60;;
62435;SDS011;48480;50.252;18.848;2022-08-25T04:56:06;14.10;;;6.70;;
62435;SDS011;48480;50.252;18.848;2022-08-25T04:58:34;13.50;;;6.30;;
62435;SDS011;48480;50.252;18.848;2022-08-25T05:01:03;13.60;;;6.30;;
62435;SDS011;48480;50.252;18.848;2022-08-25T05:03:31;12.00;;;7.20;;
62435;SDS011;48480;50.252;18.848;2022-08-25T05:05:57;14.20;;;6.70;;
62435;SDS011;48480;50.252;18.848;2022-08-25T05:08:24;14.40;;;7.10;;
62435;SDS011;48480;50.252;18.848;2022-08-25T05:10:50;11.70;;;7.30;;
62435;SDS011;48480;50.252;18.848;2022-08-25T05:13:19;15.50;;;7.10;;
62435;SDS011;48480;50.252;18.848;2022-08-25T05:15:50;17.00;;;6.30;;
62435;SDS011;48480;50.252;18.848;2022-08-25T05:18:23;12.00;;;6.80;;
62435;SDS011;48480;50.252;18.848;2022-08-25T05:20:51;14.10;;;6.70;;
62435;SDS011;48480;50.252;18.848;2022-08-25T05:23:20;13.20;;;6.60;;
62435;SDS011;48480;50.252;18.848;2022-08-25T05:25:47;16.80;;;7.10;;
62435;SDS011;48480;50.252;18.848;2022-08-25T05:28:15;15.70;;;7.20;;
62435;SDS011;48480;50.252;18.848;2022-08-25T05:30:42;19.30;;;10.40;;
62435;SDS011;48480;50.252;18.848;2022-08-25T05:33:10;18.30;;;9.80;;
62435;SDS011;48480;50.252;18.848;2022-08-25T05:35:37;18.30;;;9.10;;
62435;SDS011;48480;50.252;18.848;2022-08-25T05:38:04;19.70;;;9.60;;
62435;SDS011;48480;50.252;18.848;2022-08-25T05:40:31;18.30;;;8.00;;
62435;SDS011;48480;50.252;18.848;2022-08-25T05:42:58;15.10;;;7.90;;
62435;SDS011;48480;50.252;18.848;2022-08-25T05:45:25;17.20;;;8.40;;
62435;SDS011;48480;50.252;18.848;2022-08-25T05:47:52;10.70;;;6.90;;
62435;SDS011;48480;50.252;18.848;2022-08-25T05:50:18;20.50;;;6.40;;
62435;SDS011;48480;50.252;18.848;2022-08-25T05:52:45;12.90;;;6.30;;
62435;SDS011;48480;50.252;18.848;2022-08-25T05:55:12;15.50;;;6.60;;
62435;SDS011;48480;50.252;18.848;2022-08-25T05:57:40;18.10;;;6.90;;
62435;SDS011;48480;50.252;18.848;2022-08-25T06:00:07;14.60;;;6.40;;
62435;SDS011;48480;50.252;18.848;2022-08-25T06:02:36;16.10;;;6.80;;
62435;SDS011;48480;50.252;18.848;2022-08-25T06:05:07;17.10;;;6.40;;
62435;SDS011;48480;50.252;18.848;2022-08-25T06:07:37;22.40;;;6.60;;
62435;SDS011;48480;50.252;18.848;2022-08-25T06:10:04;15.90;;;6.60;;
62435;SDS011;48480;50.252;18.848;2022-08-25T06:12:32;18.00;;;6.60;;
62435;SDS011;48480;50.252;18.848;2022-08-25T06:15:01;15.30;;;6.10;;
62435;SDS011;48480;50.252;18.848;2022-08-25T06:20:00;18.10;;;6.10;;
62435;SDS011;48480;50.252;18.848;2022-08-25T06:22:28;15.30;;;5.90;;
62435;SDS011;48480;50.252;18.848;2022-08-25T06:24:55;15.90;;;5.90;;
62435;SDS011;48480;50.252;18.848;2022-08-25T06:27:21;20.80;;;5.90;;
62435;SDS011;48480;50.252;18.848;2022-08-25T06:29:48;19.90;;;6.20;;
62435;SDS011;48480;50.252;18.848;2022-08-25T06:32:21;17.00;;;6.20;;
62435;SDS011;48480;50.252;18.848;2022-08-25T06:34:48;15.60;;;6.50;;
62435;SDS011;48480;50.252;18.848;2022-08-25T06:37:14;18.70;;;6.80;;
62435;SDS011;48480;50.252;18.848;2022-08-25T06:39:41;21.20;;;6.80;;
62435;SDS011;48480;50.252;18.848;2022-08-25T06:42:09;21.10;;;6.70;;
62435;SDS011;48480;50.252;18.848;2022-08-25T06:47:04;22.20;;;6.50;;
62435;SDS011;48480;50.252;18.848;2022-08-25T06:49:31;20.10;;;7.20;;
62435;SDS011;48480;50.252;18.848;2022-08-25T06:51:58;21.10;;;6.60;;
62435;SDS011;48480;50.252;18.848;2022-08-25T06:54:25;21.80;;;6.90;;
62435;SDS011;48480;50.252;18.848;2022-08-25T06:56:51;20.00;;;6.00;;
62435;SDS011;48480;50.252;18.848;2022-08-25T06:59:26;20.60;;;5.40;;
62435;SDS011;48480;50.252;18.848;2022-08-25T07:01:53;19.70;;;6.00;;
62435;SDS011;48480;50.252;18.848;2022-08-25T07:04:20;19.40;;;6.20;;
62435;SDS011;48480;50.252;18.848;2022-08-25T07:06:46;19.80;;;6.20;;
62435;SDS011;48480;50.252;18.848;2022-08-25T07:09:13;21.10;;;5.90;;
62435;SDS011;48480;50.252;18.848;2022-08-25T07:11:47;21.40;;;6.30;;
62435;SDS011;48480;50.252;18.848;2022-08-25T07:14:14;20.10;;;6.10;;
62435;SDS011;48480;50.252;18.848;2022-08-25T07:16:42;18.80;;;5.80;;
62435;SDS011;48480;50.252;18.848;2022-08-25T07:19:09;18.50;;;5.80;;
62435;SDS011;48480;50.252;18.848;2022-08-25T07:21:37;18.40;;;5.40;;
62435;SDS011;48480;50.252;18.848;2022-08-25T07:24:13;17.30;;;5.70;;
62435;SDS011;48480;50.252;18.848;2022-08-25T07:26:40;24.70;;;5.80;;
62435;SDS011;48480;50.252;18.848;2022-08-25T07:29:10;21.20;;;5.70;;
62435;SDS011;48480;50.252;18.848;2022-08-25T07:31:45;17.30;;;5.40;;
62435;SDS011;48480;50.252;18.848;2022-08-25T07:34:21;19.10;;;5.20;;
62435;SDS011;48480;50.252;18.848;2022-08-25T07:37:06;21.00;;;5.90;;
62435;SDS011;48480;50.252;18.848;2022-08-25T07:39:33;21.20;;;5.10;;
62435;SDS011;48480;50.252;18.848;2022-08-25T07:44:29;19.50;;;6.00;;
62435;SDS011;48480;50.252;18.848;2022-08-25T07:46:56;19.60;;;5.50;;
62435;SDS011;48480;50.252;18.848;2022-08-25T07:49:24;17.50;;;5.30;;
62435;SDS011;48480;50.252;18.848;2022-08-25T07:51:52;17.90;;;5.90;;
62435;SDS011;48480;50.252;18.848;2022-08-25T07:57:02;19.30;;;5.30;;
62435;SDS011;48480;50.252;18.848;2022-08-25T07:59:29;27.80;;;5.20;;
62435;SDS011;48480;50.252;18.848;2022-08-25T08:01:58;27.20;;;6.40;;
62435;SDS011;48480;50.252;18.848;2022-08-25T08:04:25;23.40;;;6.00;;
62435;SDS011;48480;50.252;18.848;2022-08-25T08:06:59;22.20;;;6.20;;
62435;SDS011;48480;50.252;18.848;2022-08-25T08:09:26;30.80;;;6.30;;
62435;SDS011;48480;50.252;18.848;2022-08-25T08:11:52;25.60;;;5.40;;
62435;SDS011;48480;50.252;18.848;2022-08-25T08:14:19;29.50;;;5.90;;
62435;SDS011;48480;50.252;18.848;2022-08-25T08:16:46;25.00;;;5.60;;
62435;SDS011;48480;50.252;18.848;2022-08-25T08:21:40;31.00;;;7.70;;
62435;SDS011;48480;50.252;18.848;2022-08-25T08:24:07;20.80;;;5.90;;
62435;SDS011;48480;50.252;18.848;2022-08-25T08:26:33;31.70;;;6.30;;
62435;SDS011;48480;50.252;18.848;2022-08-25T08:29:00;24.50;;;5.50;;
62435;SDS011;48480;50.252;18.848;2022-08-25T08:31:27;23.50;;;5.80;;
62435;SDS011;48480;50.252;18.848;2022-08-25T08:34:01;30.00;;;5.60;;
62435;SDS011;48480;50.252;18.848;2022-08-25T08:36:27;27.80;;;6.10;;
62435;SDS011;48480;50.252;18.848;2022-08-25T08:38:54;29.30;;;5.80;;
62435;SDS011;48480;50.252;18.848;2022-08-25T08:52:20;23.60;;;5.80;;
62435;SDS011;48480;50.252;18.848;2022-08-25T08:54:57;21.30;;;6.10;;
62435;SDS011;48480;50.252;18.848;2022-08-25T08:57:46;31.10;;;6.10;;
62435;SDS011;48480;50.252;18.848;2022-08-25T09:00:15;23.20;;;6.00;;
62435;SDS011;48480;50.252;18.848;2022-08-25T09:05:46;24.90;;;5.50;;
62435;SDS011;48480;50.252;18.848;2022-08-25T09:08:15;30.90;;;6.10;;
62435;SDS011;48480;50.252;18.848;2022-08-25T09:10:56;28.40;;;6.70;;
62435;SDS011;48480;50.252;18.848;2022-08-25T09:16:36;21.10;;;5.40;;
62435;SDS011;48480;50.252;18.848;2022-08-25T09:27:41;27.90;;;5.50;;
62435;SDS011;48480;50.252;18.848;2022-08-25T09:32:39;34.80;;;6.10;;
62435;SDS011;48480;50.252;18.848;2022-08-25T09:35:17;33.40;;;6.20;;
62435;SDS011;48480;50.252;18.848;2022-08-25T09:40:32;27.70;;;6.10;;
62435;SDS011;48480;50.252;18.848;2022-08-25T09:43:03;27.00;;;6.10;;
62435;SDS011;48480;50.252;18.848;2022-08-25T09:45:44;24.50;;;5.90;;
62435;SDS011;48480;50.252;18.848;2022-08-25T09:50:39;25.40;;;5.50;;
62435;SDS011;48480;50.252;18.848;2022-08-25T09:53:12;22.70;;;5.70;;
62435;SDS011;48480;50.252;18.848;2022-08-25T09:55:40;28.40;;;5.60;;
62435;SDS011;48480;50.252;18.848;2022-08-25T09:58:16;29.80;;;6.10;;
62435;SDS011;48480;50.252;18.848;2022-08-25T10:00:59;30.60;;;5.30;;
62435;SDS011;48480;50.252;18.848;2022-08-25T10:03:28;28.20;;;6.20;;
62435;SDS011;48480;50.252;18.848;2022-08-25T10:06:00;29.40;;;6.10;;
62435;SDS011;48480;50.252;18.848;2022-08-25T10:08:50;28.90;;;5.50;;
62435;SDS011;48480;50.252;18.848;2022-08-25T10:11:35;33.00;;;5.80;;
62435;SDS011;48480;50.252;18.848;2022-08-25T10:16:33;23.00;;;5.30;;
62435;SDS011;48480;50.252;18.848;2022-08-25T10:21:31;28.80;;;6.00;;
62435;SDS011;48480;50.252;18.848;2022-08-25T10:23:58;21.50;;;5.40;;
62435;SDS011;48480;50.252;18.848;2022-08-25T10:29:19;28.00;;;6.10;;
62435;SDS011;48480;50.252;18.848;2022-08-25T10:34:46;26.20;;;6.00;;
62435;SDS011;48480;50.252;18.848;2022-08-25T10:37:27;29.30;;;6.20;;
62435;SDS011;48480;50.252;18.848;2022-08-25T10:40:15;33.90;;;7.20;;
62435;SDS011;48480;50.252;18.848;2022-08-25T10:43:00;23.10;;;6.50;;
62435;SDS011;48480;50.252;18.848;2022-08-25T10:45:56;29.20;;;6.40;;
62435;SDS011;48480;50.252;18.848;2022-08-25T10:48:46;26.80;;;6.50;;
62435;SDS011;48480;50.252;18.848;2022-08-25T10:51:35;29.90;;;7.00;;
62435;SDS011;48480;50.252;18.848;2022-08-25T10:54:35;28.20;;;6.50;;
62435;SDS011;48480;50.252;18.848;2022-08-25T10:57:28;19.80;;;6.30;;
62435;SDS011;48480;50.252;18.848;2022-08-25T11:00:04;26.20;;;6.50;;
62435;SDS011;48480;50.252;18.848;2022-08-25T11:05:33;29.10;;;6.20;;
62435;SDS011;48480;50.252;18.848;2022-08-25T11:10:51;31.50;;;6.20;;
62435;SDS011;48480;50.252;18.848;2022-08-25T11:16:38;27.20;;;5.90;;
62435;SDS011;48480;50.252;18.848;2022-08-25T11:19:21;26.00;;;5.90;;
62435;SDS011;48480;50.252;18.848;2022-08-25T11:22:06;32.40;;;6.60;;
62435;SDS011;48480;50.252;18.848;2022-08-25T11:27:42;33.50;;;6.30;;
62435;SDS011;48480;50.252;18.848;2022-08-25T11:30:31;19.20;;;5.00;;
62435;SDS011;48480;50.252;18.848;2022-08-25T11:33:10;26.70;;;5.50;;
62435;SDS011;48480;50.252;18.848;2022-08-25T11:35:41;22.10;;;5.90;;
62435;SDS011;48480;50.252;18.848;2022-08-25T11:44:04;23.80;;;6.10;;
62435;SDS011;48480;50.252;18.848;2022-08-25T11:47:04;22.50;;;6.20;;
62435;SDS011;48480;50.252;18.848;2022-08-25T11:49:47;26.80;;;6.00;;
62435;SDS011;48480;50.252;18.848;2022-08-25T11:55:11;23.00;;;6.00;;
62435;SDS011;48480;50.252;18.848;2022-08-25T12:00:36;20.90;;;5.40;;
62435;SDS011;48480;50.252;18.848;2022-08-25T12:05:51;21.20;;;6.00;;
62435;SDS011;48480;50.252;18.848;2022-08-25T12:19:29;26.70;;;5.90;;
62435;SDS011;48480;50.252;18.848;2022-08-25T12:21:57;21.90;;;5.60;;
62435;SDS011;48480;50.252;18.848;2022-08-25T12:25:15;19.40;;;5.70;;
62435;SDS011;48480;50.252;18.848;2022-08-25T12:28:32;25.90;;;6.10;;
62435;SDS011;48480;50.252;18.848;2022-08-25T12:34:39;20.70;;;5.70;;
62435;SDS011;48480;50.252;18.848;2022-08-25T12:37:26;20.50;;;6.20;;
62435;SDS011;48480;50.252;18.848;2022-08-25T12:40:01;27.60;;;5.10;;
62435;SDS011;48480;50.252;18.848;2022-08-25T12:42:36;22.30;;;5.50;;
62435;SDS011;48480;50.252;18.848;2022-08-25T12:47:51;15.70;;;4.80;;
62435;SDS011;48480;50.252;18.848;2022-08-25T12:55:39;14.70;;;4.40;;
62435;SDS011;48480;50.252;18.848;2022-08-25T12:58:13;23.40;;;5.10;;
62435;SDS011;48480;50.252;18.848;2022-08-25T13:03:23;23.10;;;5.40;;
62435;SDS011;48480;50.252;18.848;2022-08-25T13:11:47;20.20;;;5.00;;
62435;SDS011;48480;50.252;18.848;2022-08-25T13:16:51;17.90;;;4.70;;
62435;SDS011;48480;50.252;18.848;2022-08-25T13:19:20;19.20;;;5.10;;
62435;SDS011;48480;50.252;18.848;2022-08-25T13:21:47;22.30;;;4.90;;
62435;SDS011;48480;50.252;18.848;2022-08-25T13:24:18;18.30;;;4.50;;
62435;SDS011;48480;50.252;18.848;2022-08-25T13:27:08;22.90;;;5.40;;
62435;SDS011;48480;50.252;18.848;2022-08-25T13:29:53;21.90;;;5.10;;
62435;SDS011;48480;50.252;18.848;2022-08-25T13:34:49;21.70;;;5.60;;
62435;SDS011;48480;50.252;18.848;2022-08-25T13:37:16;17.70;;;4.70;;
62435;SDS011;48480;50.252;18.848;2022-08-25T13:42:43;16.80;;;4.40;;
62435;SDS011;48480;50.252;18.848;2022-08-25T13:45:18;20.00;;;5.30;;
62435;SDS011;48480;50.252;18.848;2022-08-25T13:47:55;22.90;;;4.70;;
62435;SDS011;48480;50.252;18.848;2022-08-25T13:52:54;17.50;;;5.00;;
62435;SDS011;48480;50.252;18.848;2022-08-25T13:55:32;22.30;;;5.00;;
62435;SDS011;48480;50.252;18.848;2022-08-25T13:58:05;14.30;;;4.80;;
62435;SDS011;48480;50.252;18.848;2022-08-25T14:01:10;15.50;;;4.20;;
62435;SDS011;48480;50.252;18.848;2022-08-25T14:03:44;17.60;;;4.80;;
62435;SDS011;48480;50.252;18.848;2022-08-25T14:06:26;20.00;;;4.40;;
62435;SDS011;48480;50.252;18.848;2022-08-25T14:16:31;19.40;;;4.40;;
62435;SDS011;48480;50.252;18.848;2022-08-25T14:19:02;20.30;;;4.30;;
62435;SDS011;48480;50.252;18.848;2022-08-25T14:21:30;18.00;;;4.50;;
62435;SDS011;48480;50.252;18.848;2022-08-25T14:23:58;13.00;;;4.10;;
62435;SDS011;48480;50.252;18.848;2022-08-25T14:28:53;18.80;;;4.50;;
62435;SDS011;48480;50.252;18.848;2022-08-25T14:31:23;15.10;;;3.90;;
62435;SDS011;48480;50.252;18.848;2022-08-25T14:33:54;13.90;;;4.70;;
62435;SDS011;48480;50.252;18.848;2022-08-25T14:41:32;20.80;;;4.40;;
62435;SDS011;48480;50.252;18.848;2022-08-25T14:44:01;15.50;;;3.80;;
62435;SDS011;48480;50.252;18.848;2022-08-25T14:46:31;21.30;;;4.10;;
62435;SDS011;48480;50.252;18.848;2022-08-25T14:49:08;15.20;;;4.10;;
62435;SDS011;48480;50.252;18.848;2022-08-25T14:51:37;22.60;;;4.10;;
62435;SDS011;48480;50.252;18.848;2022-08-25T14:54:09;21.40;;;4.50;;
62435;SDS011;48480;50.252;18.848;2022-08-25T14:56:38;14.40;;;4.00;;
62435;SDS011;48480;50.252;18.848;2022-08-25T15:01:58;21.00;;;4.90;;
62435;SDS011;48480;50.252;18.848;2022-08-25T15:04:26;15.10;;;4.30;;
62435;SDS011;48480;50.252;18.848;2022-08-25T15:10:00;21.20;;;4.00;;
62435;SDS011;48480;50.252;18.848;2022-08-25T15:12:27;14.80;;;4.00;;
62435;SDS011;48480;50.252;18.848;2022-08-25T15:15:11;19.00;;;4.00;;
62435;SDS011;48480;50.252;18.848;2022-08-25T15:17:38;15.70;;;4.60;;
62435;SDS011;48480;50.252;18.848;2022-08-25T15:20:07;17.10;;;4.10;;
62435;SDS011;48480;50.252;18.848;2022-08-25T15:22:34;17.70;;;4.40;;
62435;SDS011;48480;50.252;18.848;2022-08-25T15:27:31;21.60;;;4.20;;
62435;SDS011;48480;50.252;18.848;2022-08-25T15:29:58;25.10;;;5.30;;
62435;SDS011;48480;50.252;18.848;2022-08-25T15:32:25;21.60;;;5.10;;
62435;SDS011;48480;50.252;18.848;2022-08-25T15:34:51;16.50;;;3.80;;
62435;SDS011;48480;50.252;18.848;2022-08-25T15:39:54;22.60;;;4.70;;
62435;SDS011;48480;50.252;18.848;2022-08-25T15:42:20;17.40;;;4.20;;
62435;SDS011;48480;50.252;18.848;2022-08-25T15:44:47;23.10;;;4.50;;
62435;SDS011;48480;50.252;18.848;2022-08-25T15:47:13;20.20;;;4.00;;
62435;SDS011;48480;50.252;18.848;2022-08-25T15:49:40;17.10;;;4.20;;
62435;SDS011;48480;50.252;18.848;2022-08-25T15:52:17;14.80;;;3.90;;
62435;SDS011;48480;50.252;18.848;2022-08-25T15:54:44;21.10;;;4.50;;
62435;SDS011;48480;50.252;18.848;2022-08-25T15:57:11;18.30;;;4.10;;
62435;SDS011;48480;50.252;18.848;2022-08-25T15:59:38;16.10;;;5.70;;
62435;SDS011;48480;50.252;18.848;2022-08-25T16:04:40;15.80;;;3.90;;
62435;SDS011;48480;50.252;18.848;2022-08-25T16:07:07;18.70;;;4.40;;
62435;SDS011;48480;50.252;18.848;2022-08-25T16:09:33;21.60;;;4.40;;
62435;SDS011;48480;50.252;18.848;2022-08-25T16:12:01;19.30;;;4.00;;
62435;SDS011;48480;50.252;18.848;2022-08-25T16:17:01;19.30;;;4.00;;
62435;SDS011;48480;50.252;18.848;2022-08-25T16:19:28;19.70;;;3.70;;
62435;SDS011;48480;50.252;18.848;2022-08-25T16:21:55;21.90;;;4.30;;
62435;SDS011;48480;50.252;18.848;2022-08-25T16:24:22;12.60;;;4.40;;
62435;SDS011;48480;50.252;18.848;2022-08-25T16:26:49;17.40;;;4.20;;
62435;SDS011;48480;50.252;18.848;2022-08-25T16:29:23;16.30;;;3.70;;
62435;SDS011;48480;50.252;18.848;2022-08-25T16:31:50;15.00;;;3.90;;
62435;SDS011;48480;50.252;18.848;2022-08-25T16:34:17;15.80;;;4.00;;
62435;SDS011;48480;50.252;18.848;2022-08-25T16:36:44;15.30;;;4.40;;
62435;SDS011;48480;50.252;18.848;2022-08-25T16:39:10;16.90;;;4.20;;
62435;SDS011;48480;50.252;18.848;2022-08-25T16:41:54;20.50;;;3.80;;
62435;SDS011;48480;50.252;18.848;2022-08-25T16:44:21;19.00;;;4.30;;
62435;SDS011;48480;50.252;18.848;2022-08-25T16:46:48;15.60;;;4.10;;
62435;SDS011;48480;50.252;18.848;2022-08-25T16:49:19;15.90;;;3.70;;
62435;SDS011;48480;50.252;18.848;2022-08-25T16:52:01;19.20;;;3.80;;
62435;SDS011;48480;50.252;18.848;2022-08-25T16:54:48;17.00;;;4.40;;
62435;SDS011;48480;50.252;18.848;2022-08-25T16:57:36;21.20;;;3.90;;
62435;SDS011;48480;50.252;18.848;2022-08-25T17:02:32;15.90;;;4.30;;
62435;SDS011;48480;50.252;18.848;2022-08-25T17:04:58;21.20;;;4.90;;
62435;SDS011;48480;50.252;18.848;2022-08-25T17:09:59;19.10;;;4.50;;
62435;SDS011;48480;50.252;18.848;2022-08-25T17:12:26;15.40;;;4.20;;
62435;SDS011;48480;50.252;18.848;2022-08-25T17:14:53;18.50;;;4.10;;
62435;SDS011;48480;50.252;18.848;2022-08-25T17:17:19;18.70;;;4.40;;
62435;SDS011;48480;50.252;18.848;2022-08-25T17:19:46;18.60;;;4.40;;
62435;SDS011;48480;50.252;18.848;2022-08-25T17:22:24;16.70;;;4.30;;
62435;SDS011;48480;50.252;18.848;2022-08-25T17:24:51;21.10;;;4.70;;